Brandy Nicole — WDH3897 — position and weather

sailwx.info

Track history (hours):
 
Tides and Currents Weather Stations Pressure Air Temp Water Temp Dewpoint Dewpoint Depression Visibility Wind Speed Wind Dir Waves Ship Positions

Brandy Nicole

Owner: Broussard Brothers, Inc., Abbeville, LA. More information available from US FCC via Universal Licensing System and Coast Guard Vessel Documentation Center.

Last reported at 2018-Jan-25 00:17 UTC. Time now 2018-Feb-25 06:14 UTC.
Position N 29°33' W 090°27'.
Warning: this ship's position is 31 days out of date.

; draft 2.2 m.

Type: Towing. MMSI: 367612050.

Date/timePositionNaut miles runAvg speedWind from/ knotsBaromVisibWave heightAir tempDewpointWater temp
2018-Jan-25 00:17N 29°33' W 090°27'2 7.4
2018-Jan-25 00:00N 29°34' W 090°29'4 7.7
2018-Jan-24 23:30N 29°34' W 090°33'3 6.0
2018-Jan-24 23:01N 29°35' W 090°37'3 5.6
2018-Jan-24 22:30N 29°36' W 090°40'3 5.2
2018-Jan-24 22:00N 29°37' W 090°42'2 4.9
2018-Jan-24 21:30N 29°34' W 090°43'3 6.1
2018-Jan-24 21:00N 29°32' W 090°46'69 5.3
2018-Jan-24 07:59N 29°49' W 092°03'3 6.8
2018-Jan-24 07:29N 29°48' W 092°06'4 7.5
2018-Jan-24 07:00N 29°47' W 092°10'0 0.2
2018-Jan-24 06:31N 29°47' W 092°10'0 0.0
2018-Jan-24 06:00N 29°47' W 092°10'0 0.3
2018-Jan-24 05:30N 29°47' W 092°10'1 1.7
2018-Jan-24 05:00N 29°47' W 092°11'0 0.0
2018-Jan-24 04:29N 29°47' W 092°11'0 0.0
2018-Jan-24 03:55N 29°47' W 092°11'0 0.0
2018-Jan-24 03:30N 29°47' W 092°11'0 0.3
2018-Jan-24 03:01N 29°47' W 092°11'0 0.0
2018-Jan-24 02:31N 29°47' W 092°11'0 0.0
2018-Jan-24 02:00N 29°47' W 092°11'0 0.0
2018-Jan-24 01:31N 29°47' W 092°11'0 0.0
2018-Jan-24 01:01N 29°47' W 092°11'0 0.0
2018-Jan-24 00:31N 29°47' W 092°11'0 0.0
2018-Jan-24 00:00N 29°47' W 092°11'0 0.0
2018-Jan-23 23:30N 29°47' W 092°11'0 0.0
2018-Jan-23 23:00N 29°47' W 092°11'0 0.0
2018-Jan-23 22:31N 29°47' W 092°11'0 0.0
2018-Jan-23 22:00N 29°47' W 092°11'0 0.0
2018-Jan-23 21:31N 29°47' W 092°11'0 0.0
2018-Jan-23 21:00N 29°47' W 092°11'0 0.0
2018-Jan-23 20:31N 29°47' W 092°11'0 0.0
2018-Jan-23 20:00N 29°47' W 092°11'0 0.0
2018-Jan-23 19:30N 29°47' W 092°11'0 0.0
2018-Jan-23 19:00N 29°47' W 092°11'0 0.0
2018-Jan-23 18:30N 29°47' W 092°11'0 0.0
2018-Jan-23 18:01N 29°47' W 092°11'0 0.0
2018-Jan-23 17:31N 29°47' W 092°11'0 0.0
2018-Jan-23 17:01N 29°47' W 092°11'0 0.0
2018-Jan-23 16:30N 29°47' W 092°11'0 0.0
2018-Jan-23 16:00N 29°47' W 092°11'0 0.0
2018-Jan-23 15:30N 29°47' W 092°11'0 0.0
2018-Jan-23 15:00N 29°47' W 092°11'0 0.0
2018-Jan-23 14:30N 29°47' W 092°11'0 0.0
2018-Jan-23 14:00N 29°47' W 092°11'0 0.0
2018-Jan-23 13:30N 29°47' W 092°11'0 0.0
2018-Jan-23 13:01N 29°47' W 092°11'0 0.0
2018-Jan-23 12:30N 29°47' W 092°11'0 0.0
2018-Jan-23 12:00N 29°47' W 092°11'0 0.0
2018-Jan-23 11:30N 29°47' W 092°11'0 0.0
2018-Jan-23 11:01N 29°47' W 092°11'0 0.0
2018-Jan-23 10:30N 29°47' W 092°11'0 0.0
2018-Jan-23 10:01N 29°47' W 092°11'0 0.0
2018-Jan-23 09:30N 29°47' W 092°11'0 0.0
2018-Jan-23 09:01N 29°47' W 092°11'0 0.0
2018-Jan-23 08:30N 29°47' W 092°11'0 0.0
2018-Jan-23 08:00N 29°47' W 092°11'0 0.0
2018-Jan-23 07:30N 29°47' W 092°11'0 0.0
2018-Jan-23 07:00N 29°47' W 092°11'0 0.0
2018-Jan-23 06:30N 29°47' W 092°11'0 0.0
2018-Jan-23 05:56N 29°47' W 092°11'0 0.0
2018-Jan-23 05:30N 29°47' W 092°11'0 0.0
2018-Jan-23 05:00N 29°47' W 092°11'0 0.0
2018-Jan-23 04:30N 29°47' W 092°11'0 0.0
2018-Jan-23 04:01N 29°47' W 092°11'0 0.0
2018-Jan-23 03:30N 29°47' W 092°11'0 0.0
2018-Jan-23 03:00N 29°47' W 092°11'0 0.0
2018-Jan-23 02:30N 29°47' W 092°11'0 0.0
2018-Jan-23 02:00N 29°47' W 092°11'0 0.0
2018-Jan-23 01:31N 29°47' W 092°11'0 0.0
2018-Jan-23 01:01N 29°47' W 092°11'0 0.0
2018-Jan-23 00:30N 29°47' W 092°11'0 0.0
2018-Jan-23 00:00N 29°47' W 092°11'0 0.0
2018-Jan-22 23:30N 29°47' W 092°11'0 0.0
2018-Jan-22 23:01N 29°47' W 092°11'0 0.0
2018-Jan-22 22:31N 29°47' W 092°11'0 0.0
2018-Jan-22 22:01N 29°47' W 092°11'0 0.0
2018-Jan-22 21:31N 29°47' W 092°11'0 0.0
2018-Jan-22 21:01N 29°47' W 092°11'0 0.0
2018-Jan-22 20:30N 29°47' W 092°11'0 0.0
2018-Jan-22 20:00N 29°47' W 092°11'0 0.0
2018-Jan-22 19:30N 29°47' W 092°11'0 0.0
2018-Jan-22 19:00N 29°47' W 092°11'0 0.0
2018-Jan-22 18:30N 29°47' W 092°11'0 0.0
2018-Jan-22 18:00N 29°47' W 092°11'0 0.0
2018-Jan-22 17:31N 29°47' W 092°11'0 0.0
2018-Jan-22 17:00N 29°47' W 092°11'0 0.0
2018-Jan-22 16:30N 29°47' W 092°11'0 0.0
2018-Jan-22 16:00N 29°47' W 092°11'0 0.0
2018-Jan-22 15:30N 29°47' W 092°11'0 0.0
2018-Jan-22 15:01N 29°47' W 092°11'0 0.0
2018-Jan-22 14:30N 29°47' W 092°11'0 0.0
2018-Jan-22 14:00N 29°47' W 092°11'0 0.0
2018-Jan-22 13:29N 29°47' W 092°11'0 0.0
2018-Jan-22 13:00N 29°47' W 092°11'0 0.0
2018-Jan-22 12:30N 29°47' W 092°11'0 0.0
2018-Jan-22 12:00N 29°47' W 092°11'0 0.0
2018-Jan-22 11:30N 29°47' W 092°11'0 0.0
2018-Jan-22 11:00N 29°47' W 092°11'0 0.0
2018-Jan-22 10:31N 29°47' W 092°11'0 0.0
2018-Jan-22 10:00N 29°47' W 092°11'0 0.0
2018-Jan-22 09:30N 29°47' W 092°11'0 0.0
2018-Jan-22 08:59N 29°47' W 092°11'0 0.0
2018-Jan-22 08:30N 29°47' W 092°11'0 0.0
2018-Jan-22 08:01N 29°47' W 092°11'0 0.0
2018-Jan-22 07:30N 29°47' W 092°11'0 0.0
2018-Jan-22 07:00N 29°47' W 092°11'0 0.0
2018-Jan-22 06:30N 29°47' W 092°11'0 0.0
2018-Jan-22 06:00N 29°47' W 092°11'0 0.0
2018-Jan-22 05:30N 29°47' W 092°11'0 0.0
2018-Jan-22 05:01N 29°47' W 092°11'0 0.0
2018-Jan-22 04:30N 29°47' W 092°11'0 0.0
2018-Jan-22 04:00N 29°47' W 092°11'0 0.0
2018-Jan-22 03:28N 29°47' W 092°11'0 0.0
2018-Jan-22 03:00N 29°47' W 092°11'0 0.0
2018-Jan-22 02:30N 29°47' W 092°11'0 0.0
2018-Jan-22 02:01N 29°47' W 092°11'0 0.0
2018-Jan-22 01:30N 29°47' W 092°11'0 0.0
2018-Jan-22 01:00N 29°47' W 092°11'0 0.0
2018-Jan-22 00:30N 29°47' W 092°11'0 0.0
2018-Jan-22 00:01N 29°47' W 092°11'0 0.0
2018-Jan-21 23:30N 29°47' W 092°11'0 0.0
2018-Jan-21 23:00N 29°47' W 092°11'0 0.0
2018-Jan-21 22:30N 29°47' W 092°11'0 0.0
2018-Jan-21 22:00N 29°47' W 092°11'0 0.0
2018-Jan-21 21:30N 29°47' W 092°11'0 0.0
2018-Jan-21 21:01N 29°47' W 092°11'0 0.0
2018-Jan-21 20:31N 29°47' W 092°11'0 0.0
2018-Jan-21 20:00N 29°47' W 092°11'0 0.0
2018-Jan-21 19:30N 29°47' W 092°11'0 0.0
2018-Jan-21 19:00N 29°47' W 092°11'0 0.0
2018-Jan-21 18:30N 29°47' W 092°11'0 0.0
2018-Jan-21 18:00N 29°47' W 092°11'0 0.0
2018-Jan-21 17:30N 29°47' W 092°11'0 0.0
2018-Jan-21 17:01N 29°47' W 092°11'0 0.0
2018-Jan-21 16:30N 29°47' W 092°11'0 0.0
2018-Jan-21 16:00N 29°47' W 092°11'0 0.0
2018-Jan-21 15:30N 29°47' W 092°11'0 0.0
2018-Jan-21 15:00N 29°47' W 092°11'0 0.0
2018-Jan-21 14:30N 29°47' W 092°11'0 0.0
2018-Jan-21 14:00N 29°47' W 092°11'0 0.0
2018-Jan-21 13:30N 29°47' W 092°11'0 0.0
2018-Jan-21 13:01N 29°47' W 092°11'0 0.0
2018-Jan-21 12:30N 29°47' W 092°11'0 0.0
2018-Jan-21 12:00N 29°47' W 092°11'0 0.0
2018-Jan-21 11:30N 29°47' W 092°11'0 0.0
2018-Jan-21 11:00N 29°47' W 092°11'0 0.0
2018-Jan-21 10:30N 29°47' W 092°11'0 0.0
2018-Jan-21 10:00N 29°47' W 092°11'0 0.0
2018-Jan-21 09:30N 29°47' W 092°11'0 0.0
2018-Jan-21 09:00N 29°47' W 092°11'0 0.0
2018-Jan-21 08:30N 29°47' W 092°11'0 0.0
2018-Jan-21 08:00N 29°47' W 092°11'0 0.0
2018-Jan-21 07:30N 29°47' W 092°11'0 0.0
2018-Jan-21 07:00N 29°47' W 092°11'0 0.0
2018-Jan-21 06:30N 29°47' W 092°11'0 0.0
2018-Jan-21 06:00N 29°47' W 092°11'0 0.0
2018-Jan-21 05:30N 29°47' W 092°11'0 0.0
2018-Jan-21 05:00N 29°47' W 092°11'0 0.0
2018-Jan-21 04:30N 29°47' W 092°11'0 0.0
2018-Jan-21 04:01N 29°47' W 092°11'0 0.0
2018-Jan-21 03:31N 29°47' W 092°11'0 0.0
2018-Jan-21 03:00N 29°47' W 092°11'0 0.0
2018-Jan-21 02:30N 29°47' W 092°11'0 0.0
2018-Jan-21 02:00N 29°47' W 092°11'0 0.0
2018-Jan-21 01:30N 29°47' W 092°11'0 0.0
2018-Jan-21 01:00N 29°47' W 092°11'0 0.0
2018-Jan-21 00:30N 29°47' W 092°11'0 0.0
2018-Jan-21 00:00N 29°47' W 092°11'0 0.0
2018-Jan-20 23:31N 29°47' W 092°11'0 0.0
2018-Jan-20 23:01N 29°47' W 092°11'0 0.0
2018-Jan-20 22:31N 29°47' W 092°11'0 0.0
2018-Jan-20 22:01N 29°47' W 092°11'0 0.0
2018-Jan-20 21:30N 29°47' W 092°11'0 0.0
2018-Jan-20 21:00N 29°47' W 092°11'0 0.0
2018-Jan-20 20:30N 29°47' W 092°11'0 0.0
2018-Jan-20 20:00N 29°47' W 092°11'0 0.0
2018-Jan-20 19:30N 29°47' W 092°11'0 0.0
2018-Jan-20 19:00N 29°47' W 092°11'0 0.0
2018-Jan-20 18:30N 29°47' W 092°11'0 0.0
2018-Jan-20 18:00N 29°47' W 092°11'0 0.0
2018-Jan-20 17:30N 29°47' W 092°11'0 0.0
2018-Jan-20 17:00N 29°47' W 092°11'0 0.0
2018-Jan-20 16:31N 29°47' W 092°11'0 0.0
2018-Jan-20 16:00N 29°47' W 092°11'0 0.0
2018-Jan-20 15:30N 29°47' W 092°11'0 0.0
2018-Jan-20 15:00N 29°47' W 092°11'0 0.0
2018-Jan-20 14:30N 29°47' W 092°11'0 0.0
2018-Jan-20 13:58N 29°47' W 092°11'0 0.0
2018-Jan-20 13:30N 29°47' W 092°11'0 0.0
2018-Jan-20 13:00N 29°47' W 092°11'0 0.0
2018-Jan-20 12:30N 29°47' W 092°11'0 0.0
2018-Jan-20 12:00N 29°47' W 092°11'0 0.0
2018-Jan-20 11:30N 29°47' W 092°11'0 0.0
2018-Jan-20 11:00N 29°47' W 092°11'0 0.0
2018-Jan-20 10:30N 29°47' W 092°11'0 0.0
2018-Jan-20 10:00N 29°47' W 092°11'0 0.0
2018-Jan-20 09:31N 29°47' W 092°11'0 0.0
2018-Jan-20 09:01N 29°47' W 092°11'0 0.0
2018-Jan-20 08:30N 29°47' W 092°11'0 0.0
2018-Jan-20 08:00N 29°47' W 092°11'0 0.0
2018-Jan-20 07:30N 29°47' W 092°11'0 0.0
2018-Jan-20 07:00N 29°47' W 092°11'0 0.0
2018-Jan-20 06:31N 29°47' W 092°11'0 0.0
2018-Jan-20 06:01N 29°47' W 092°11'0 0.0
2018-Jan-20 05:30N 29°47' W 092°11'0 0.0
2018-Jan-20 05:00N 29°47' W 092°11'0 0.0
2018-Jan-20 04:30N 29°47' W 092°11'0 0.0
2018-Jan-20 04:00N 29°47' W 092°11'0 0.0
2018-Jan-20 03:31N 29°47' W 092°11'0 0.0
2018-Jan-20 03:01N 29°47' W 092°11'0 0.0
2018-Jan-20 02:30N 29°47' W 092°11'0 0.0
2018-Jan-20 02:00N 29°47' W 092°11'0 0.0
2018-Jan-20 01:30N 29°47' W 092°11'0 0.0
2018-Jan-20 00:59N 29°47' W 092°11'0 0.0
2018-Jan-20 00:30N 29°47' W 092°11'0 0.0
2018-Jan-20 00:00N 29°47' W 092°11'0 0.0
2018-Jan-19 23:31N 29°47' W 092°11'0 0.0
2018-Jan-19 23:00N 29°47' W 092°11'0 0.0
2018-Jan-19 22:30N 29°47' W 092°11'0 0.0
2018-Jan-19 22:01N 29°47' W 092°11'0 0.0
2018-Jan-19 21:30N 29°47' W 092°11'0 0.0
2018-Jan-19 21:00N 29°47' W 092°11'0 0.0
2018-Jan-19 20:30N 29°47' W 092°11'0 0.0
2018-Jan-19 20:01N 29°47' W 092°11'0 0.0
2018-Jan-19 19:30N 29°47' W 092°11'0 0.0
2018-Jan-19 19:00N 29°47' W 092°11'0 0.0
2018-Jan-19 18:30N 29°47' W 092°11'0 0.0
2018-Jan-19 18:00N 29°47' W 092°11'0 0.0
2018-Jan-19 17:31N 29°47' W 092°11'0 0.0
2018-Jan-19 17:00N 29°47' W 092°11'0 0.0
2018-Jan-19 16:30N 29°47' W 092°11'0 0.0
2018-Jan-19 16:00N 29°47' W 092°11'0 0.0
2018-Jan-19 15:30N 29°47' W 092°11'0 0.0
2018-Jan-19 15:01N 29°47' W 092°11'0 0.0
2018-Jan-19 14:30N 29°47' W 092°11'0 0.0
2018-Jan-19 14:00N 29°47' W 092°11'0 0.0
2018-Jan-19 13:30N 29°47' W 092°11'0 0.0
2018-Jan-19 13:00N 29°47' W 092°11'0 0.0
2018-Jan-19 12:30N 29°47' W 092°11'0 0.0
2018-Jan-19 12:00N 29°47' W 092°11'0 0.0
2018-Jan-19 11:30N 29°47' W 092°11'0 0.0
2018-Jan-19 11:00N 29°47' W 092°11'0 0.0
2018-Jan-19 10:30N 29°47' W 092°11'0 0.0
2018-Jan-19 10:00N 29°47' W 092°11'0 0.0
2018-Jan-19 09:30N 29°47' W 092°11'0 0.0
2018-Jan-19 09:00N 29°47' W 092°11'0 0.0
2018-Jan-19 08:31N 29°47' W 092°11'0 0.0
2018-Jan-19 08:00N 29°47' W 092°11'0 0.0
2018-Jan-19 07:30N 29°47' W 092°11'0 0.0
2018-Jan-19 07:00N 29°47' W 092°11'0 0.0
2018-Jan-19 06:30N 29°47' W 092°11'0 0.0
2018-Jan-19 06:00N 29°47' W 092°11'0 0.0
2018-Jan-19 05:30N 29°47' W 092°11'0 0.0
2018-Jan-19 05:00N 29°47' W 092°11'0 0.0
2018-Jan-19 04:31N 29°47' W 092°11'0 0.0
2018-Jan-19 04:01N 29°47' W 092°11'0 0.0
2018-Jan-19 03:30N 29°47' W 092°11'0 0.0
2018-Jan-19 03:00N 29°47' W 092°11'0 0.0
2018-Jan-19 02:30N 29°47' W 092°11'0 0.0
2018-Jan-19 02:00N 29°47' W 092°11'0 0.0
2018-Jan-19 01:30N 29°47' W 092°11'0 0.0
2018-Jan-19 01:00N 29°47' W 092°11'0 0.0
2018-Jan-19 00:30N 29°47' W 092°11'0 0.0
2018-Jan-19 00:00N 29°47' W 092°11'0 0.0
2018-Jan-18 23:30N 29°47' W 092°11'0 0.0
2018-Jan-18 23:00N 29°47' W 092°11'0 0.0
2018-Jan-18 22:30N 29°47' W 092°11'0 0.0
2018-Jan-18 22:00N 29°47' W 092°11'0 0.0
2018-Jan-18 21:30N 29°47' W 092°11'0 0.0
2018-Jan-18 21:00N 29°47' W 092°11'0 0.0
2018-Jan-18 20:30N 29°47' W 092°11'0 0.0
2018-Jan-18 20:01N 29°47' W 092°11'0 0.0
2018-Jan-18 19:30N 29°47' W 092°11'0 0.0
2018-Jan-18 19:00N 29°47' W 092°11'0 0.0
2018-Jan-18 18:30N 29°47' W 092°11'0 0.0
2018-Jan-18 18:01N 29°47' W 092°11'0 0.0
2018-Jan-18 17:30N 29°47' W 092°11'0 0.0
2018-Jan-18 17:00N 29°47' W 092°11'0 0.0
2018-Jan-18 16:30N 29°47' W 092°11'0 0.0
2018-Jan-18 16:00N 29°47' W 092°11'0 0.0
2018-Jan-18 15:31N 29°47' W 092°11'0 0.0
2018-Jan-18 15:00N 29°47' W 092°11'0 0.0
2018-Jan-18 14:31N 29°47' W 092°11'0 0.0
2018-Jan-18 14:01N 29°47' W 092°11'0 0.0
2018-Jan-18 13:31N 29°47' W 092°11'0 0.0
2018-Jan-18 13:00N 29°47' W 092°11'0 0.0
2018-Jan-18 12:30N 29°47' W 092°11'0 0.0
2018-Jan-18 12:00N 29°47' W 092°11'0 0.0
2018-Jan-18 11:30N 29°47' W 092°11'0 0.0
2018-Jan-18 10:58N 29°47' W 092°11'0 0.0
2018-Jan-18 10:30N 29°47' W 092°11'0 0.0
2018-Jan-18 10:00N 29°47' W 092°11'0 0.0
2018-Jan-18 09:30N 29°47' W 092°11'0 0.0
2018-Jan-18 09:01N 29°47' W 092°11'0 0.0
2018-Jan-18 08:31N 29°47' W 092°11'0 0.0
2018-Jan-18 08:01N 29°47' W 092°11'0 0.0
2018-Jan-18 07:31N 29°47' W 092°11'0 0.0
2018-Jan-18 07:01N 29°47' W 092°11'0 0.0
2018-Jan-18 06:30N 29°47' W 092°11'0 0.0
2018-Jan-18 06:00N 29°47' W 092°11'0 0.0
2018-Jan-18 05:31N 29°47' W 092°11'0 0.0
2018-Jan-18 05:00N 29°47' W 092°11'0 0.0
2018-Jan-18 04:30N 29°47' W 092°11'0 0.0
2018-Jan-18 04:00N 29°47' W 092°11'0 0.0
2018-Jan-18 03:31N 29°47' W 092°11'0 0.0
2018-Jan-18 03:00N 29°47' W 092°11'0 0.0
2018-Jan-18 02:30N 29°47' W 092°11'0 0.0
2018-Jan-18 02:01N 29°47' W 092°11'0 0.0
2018-Jan-18 01:30N 29°47' W 092°11'0 0.0
2018-Jan-18 01:00N 29°47' W 092°11'0 0.0
2018-Jan-18 00:00N 29°47' W 092°11'0 0.1
2018-Jan-17 23:57N 29°47' W 092°11'  
Track history (hours):
 
Tides and Currents Weather Stations Pressure Air Temp Water Temp Dewpoint Dewpoint Depression Visibility Wind Speed Wind Dir Waves Ship Positions

Brandy Nicole

Owner: Broussard Brothers, Inc., Abbeville, LA. More information available from US FCC via Universal Licensing System and Coast Guard Vessel Documentation Center.

Last reported at 2018-Jan-25 00:17 UTC. Time now 2018-Feb-25 06:14 UTC.
Position N 29°33' W 090°27'.
Warning: this ship's position is 31 days out of date.

; draft 2.2 m.

Type: Towing. MMSI: 367612050.

Date/timePositionNaut miles runAvg speedWind from/ knotsBaromVisibWave heightAir tempDewpointWater temp
2018-Jan-25 00:17N 29°33' W 090°27'2 7.4
2018-Jan-25 00:00N 29°34' W 090°29'4 7.7
2018-Jan-24 23:30N 29°34' W 090°33'3 6.0
2018-Jan-24 23:01N 29°35' W 090°37'3 5.6
2018-Jan-24 22:30N 29°36' W 090°40'3 5.2
2018-Jan-24 22:00N 29°37' W 090°42'2 4.9
2018-Jan-24 21:30N 29°34' W 090°43'3 6.1
2018-Jan-24 21:00N 29°32' W 090°46'69 5.3
2018-Jan-24 07:59N 29°49' W 092°03'3 6.8
2018-Jan-24 07:29N 29°48' W 092°06'4 7.5
2018-Jan-24 07:00N 29°47' W 092°10'0 0.2
2018-Jan-24 06:31N 29°47' W 092°10'0 0.0
2018-Jan-24 06:00N 29°47' W 092°10'0 0.3
2018-Jan-24 05:30N 29°47' W 092°10'1 1.7
2018-Jan-24 05:00N 29°47' W 092°11'0 0.0
2018-Jan-24 04:29N 29°47' W 092°11'0 0.0
2018-Jan-24 03:55N 29°47' W 092°11'0 0.0
2018-Jan-24 03:30N 29°47' W 092°11'0 0.3
2018-Jan-24 03:01N 29°47' W 092°11'0 0.0
2018-Jan-24 02:31N 29°47' W 092°11'0 0.0
2018-Jan-24 02:00N 29°47' W 092°11'0 0.0
2018-Jan-24 01:31N 29°47' W 092°11'0 0.0
2018-Jan-24 01:01N 29°47' W 092°11'0 0.0
2018-Jan-24 00:31N 29°47' W 092°11'0 0.0
2018-Jan-24 00:00N 29°47' W 092°11'0 0.0
2018-Jan-23 23:30N 29°47' W 092°11'0 0.0
2018-Jan-23 23:00N 29°47' W 092°11'0 0.0
2018-Jan-23 22:31N 29°47' W 092°11'0 0.0
2018-Jan-23 22:00N 29°47' W 092°11'0 0.0
2018-Jan-23 21:31N 29°47' W 092°11'0 0.0
2018-Jan-23 21:00N 29°47' W 092°11'0 0.0
2018-Jan-23 20:31N 29°47' W 092°11'0 0.0
2018-Jan-23 20:00N 29°47' W 092°11'0 0.0
2018-Jan-23 19:30N 29°47' W 092°11'0 0.0
2018-Jan-23 19:00N 29°47' W 092°11'0 0.0
2018-Jan-23 18:30N 29°47' W 092°11'0 0.0
2018-Jan-23 18:01N 29°47' W 092°11'0 0.0
2018-Jan-23 17:31N 29°47' W 092°11'0 0.0
2018-Jan-23 17:01N 29°47' W 092°11'0 0.0
2018-Jan-23 16:30N 29°47' W 092°11'0 0.0
2018-Jan-23 16:00N 29°47' W 092°11'0 0.0
2018-Jan-23 15:30N 29°47' W 092°11'0 0.0
2018-Jan-23 15:00N 29°47' W 092°11'0 0.0
2018-Jan-23 14:30N 29°47' W 092°11'0 0.0
2018-Jan-23 14:00N 29°47' W 092°11'0 0.0
2018-Jan-23 13:30N 29°47' W 092°11'0 0.0
2018-Jan-23 13:01N 29°47' W 092°11'0 0.0
2018-Jan-23 12:30N 29°47' W 092°11'0 0.0
2018-Jan-23 12:00N 29°47' W 092°11'0 0.0
2018-Jan-23 11:30N 29°47' W 092°11'0 0.0
2018-Jan-23 11:01N 29°47' W 092°11'0 0.0
2018-Jan-23 10:30N 29°47' W 092°11'0 0.0
2018-Jan-23 10:01N 29°47' W 092°11'0 0.0
2018-Jan-23 09:30N 29°47' W 092°11'0 0.0
2018-Jan-23 09:01N 29°47' W 092°11'0 0.0
2018-Jan-23 08:30N 29°47' W 092°11'0 0.0
2018-Jan-23 08:00N 29°47' W 092°11'0 0.0
2018-Jan-23 07:30N 29°47' W 092°11'0 0.0
2018-Jan-23 07:00N 29°47' W 092°11'0 0.0
2018-Jan-23 06:30N 29°47' W 092°11'0 0.0
2018-Jan-23 05:56N 29°47' W 092°11'0 0.0
2018-Jan-23 05:30N 29°47' W 092°11'0 0.0
2018-Jan-23 05:00N 29°47' W 092°11'0 0.0
2018-Jan-23 04:30N 29°47' W 092°11'0 0.0
2018-Jan-23 04:01N 29°47' W 092°11'0 0.0
2018-Jan-23 03:30N 29°47' W 092°11'0 0.0
2018-Jan-23 03:00N 29°47' W 092°11'0 0.0
2018-Jan-23 02:30N 29°47' W 092°11'0 0.0
2018-Jan-23 02:00N 29°47' W 092°11'0 0.0
2018-Jan-23 01:31N 29°47' W 092°11'0 0.0
2018-Jan-23 01:01N 29°47' W 092°11'0 0.0
2018-Jan-23 00:30N 29°47' W 092°11'0 0.0
2018-Jan-23 00:00N 29°47' W 092°11'0 0.0
2018-Jan-22 23:30N 29°47' W 092°11'0 0.0
2018-Jan-22 23:01N 29°47' W 092°11'0 0.0
2018-Jan-22 22:31N 29°47' W 092°11'0 0.0
2018-Jan-22 22:01N 29°47' W 092°11'0 0.0
2018-Jan-22 21:31N 29°47' W 092°11'0 0.0
2018-Jan-22 21:01N 29°47' W 092°11'0 0.0
2018-Jan-22 20:30N 29°47' W 092°11'0 0.0
2018-Jan-22 20:00N 29°47' W 092°11'0 0.0
2018-Jan-22 19:30N 29°47' W 092°11'0 0.0
2018-Jan-22 19:00N 29°47' W 092°11'0 0.0
2018-Jan-22 18:30N 29°47' W 092°11'0 0.0
2018-Jan-22 18:00N 29°47' W 092°11'0 0.0
2018-Jan-22 17:31N 29°47' W 092°11'0 0.0
2018-Jan-22 17:00N 29°47' W 092°11'0 0.0
2018-Jan-22 16:30N 29°47' W 092°11'0 0.0
2018-Jan-22 16:00N 29°47' W 092°11'0 0.0
2018-Jan-22 15:30N 29°47' W 092°11'0 0.0
2018-Jan-22 15:01N 29°47' W 092°11'0 0.0
2018-Jan-22 14:30N 29°47' W 092°11'0 0.0
2018-Jan-22 14:00N 29°47' W 092°11'0 0.0
2018-Jan-22 13:29N 29°47' W 092°11'0 0.0
2018-Jan-22 13:00N 29°47' W 092°11'0 0.0
2018-Jan-22 12:30N 29°47' W 092°11'0 0.0
2018-Jan-22 12:00N 29°47' W 092°11'0 0.0
2018-Jan-22 11:30N 29°47' W 092°11'0 0.0
2018-Jan-22 11:00N 29°47' W 092°11'0 0.0
2018-Jan-22 10:31N 29°47' W 092°11'0 0.0
2018-Jan-22 10:00N 29°47' W 092°11'0 0.0
2018-Jan-22 09:30N 29°47' W 092°11'0 0.0
2018-Jan-22 08:59N 29°47' W 092°11'0 0.0
2018-Jan-22 08:30N 29°47' W 092°11'0 0.0
2018-Jan-22 08:01N 29°47' W 092°11'0 0.0
2018-Jan-22 07:30N 29°47' W 092°11'0 0.0
2018-Jan-22 07:00N 29°47' W 092°11'0 0.0
2018-Jan-22 06:30N 29°47' W 092°11'0 0.0
2018-Jan-22 06:00N 29°47' W 092°11'0 0.0
2018-Jan-22 05:30N 29°47' W 092°11'0 0.0
2018-Jan-22 05:01N 29°47' W 092°11'0 0.0
2018-Jan-22 04:30N 29°47' W 092°11'0 0.0
2018-Jan-22 04:00N 29°47' W 092°11'0 0.0
2018-Jan-22 03:28N 29°47' W 092°11'0 0.0
2018-Jan-22 03:00N 29°47' W 092°11'0 0.0
2018-Jan-22 02:30N 29°47' W 092°11'0 0.0
2018-Jan-22 02:01N 29°47' W 092°11'0 0.0
2018-Jan-22 01:30N 29°47' W 092°11'0 0.0
2018-Jan-22 01:00N 29°47' W 092°11'0 0.0
2018-Jan-22 00:30N 29°47' W 092°11'0 0.0
2018-Jan-22 00:01N 29°47' W 092°11'0 0.0
2018-Jan-21 23:30N 29°47' W 092°11'0 0.0
2018-Jan-21 23:00N 29°47' W 092°11'0 0.0
2018-Jan-21 22:30N 29°47' W 092°11'0 0.0
2018-Jan-21 22:00N 29°47' W 092°11'0 0.0
2018-Jan-21 21:30N 29°47' W 092°11'0 0.0
2018-Jan-21 21:01N 29°47' W 092°11'0 0.0
2018-Jan-21 20:31N 29°47' W 092°11'0 0.0
2018-Jan-21 20:00N 29°47' W 092°11'0 0.0
2018-Jan-21 19:30N 29°47' W 092°11'0 0.0
2018-Jan-21 19:00N 29°47' W 092°11'0 0.0
2018-Jan-21 18:30N 29°47' W 092°11'0 0.0
2018-Jan-21 18:00N 29°47' W 092°11'0 0.0
2018-Jan-21 17:30N 29°47' W 092°11'0 0.0
2018-Jan-21 17:01N 29°47' W 092°11'0 0.0
2018-Jan-21 16:30N 29°47' W 092°11'0 0.0
2018-Jan-21 16:00N 29°47' W 092°11'0 0.0
2018-Jan-21 15:30N 29°47' W 092°11'0 0.0
2018-Jan-21 15:00N 29°47' W 092°11'0 0.0
2018-Jan-21 14:30N 29°47' W 092°11'0 0.0
2018-Jan-21 14:00N 29°47' W 092°11'0 0.0
2018-Jan-21 13:30N 29°47' W 092°11'0 0.0
2018-Jan-21 13:01N 29°47' W 092°11'0 0.0
2018-Jan-21 12:30N 29°47' W 092°11'0 0.0
2018-Jan-21 12:00N 29°47' W 092°11'0 0.0
2018-Jan-21 11:30N 29°47' W 092°11'0 0.0
2018-Jan-21 11:00N 29°47' W 092°11'0 0.0
2018-Jan-21 10:30N 29°47' W 092°11'0 0.0
2018-Jan-21 10:00N 29°47' W 092°11'0 0.0
2018-Jan-21 09:30N 29°47' W 092°11'0 0.0
2018-Jan-21 09:00N 29°47' W 092°11'0 0.0
2018-Jan-21 08:30N 29°47' W 092°11'0 0.0
2018-Jan-21 08:00N 29°47' W 092°11'0 0.0
2018-Jan-21 07:30N 29°47' W 092°11'0 0.0
2018-Jan-21 07:00N 29°47' W 092°11'0 0.0
2018-Jan-21 06:30N 29°47' W 092°11'0 0.0
2018-Jan-21 06:00N 29°47' W 092°11'0 0.0
2018-Jan-21 05:30N 29°47' W 092°11'0 0.0
2018-Jan-21 05:00N 29°47' W 092°11'0 0.0
2018-Jan-21 04:30N 29°47' W 092°11'0 0.0
2018-Jan-21 04:01N 29°47' W 092°11'0 0.0
2018-Jan-21 03:31N 29°47' W 092°11'0 0.0
2018-Jan-21 03:00N 29°47' W 092°11'0 0.0
2018-Jan-21 02:30N 29°47' W 092°11'0 0.0
2018-Jan-21 02:00N 29°47' W 092°11'0 0.0
2018-Jan-21 01:30N 29°47' W 092°11'0 0.0
2018-Jan-21 01:00N 29°47' W 092°11'0 0.0
2018-Jan-21 00:30N 29°47' W 092°11'0 0.0
2018-Jan-21 00:00N 29°47' W 092°11'0 0.0
2018-Jan-20 23:31N 29°47' W 092°11'0 0.0
2018-Jan-20 23:01N 29°47' W 092°11'0 0.0
2018-Jan-20 22:31N 29°47' W 092°11'0 0.0
2018-Jan-20 22:01N 29°47' W 092°11'0 0.0
2018-Jan-20 21:30N 29°47' W 092°11'0 0.0
2018-Jan-20 21:00N 29°47' W 092°11'0 0.0
2018-Jan-20 20:30N 29°47' W 092°11'0 0.0
2018-Jan-20 20:00N 29°47' W 092°11'0 0.0
2018-Jan-20 19:30N 29°47' W 092°11'0 0.0
2018-Jan-20 19:00N 29°47' W 092°11'0 0.0
2018-Jan-20 18:30N 29°47' W 092°11'0 0.0
2018-Jan-20 18:00N 29°47' W 092°11'0 0.0
2018-Jan-20 17:30N 29°47' W 092°11'0 0.0
2018-Jan-20 17:00N 29°47' W 092°11'0 0.0
2018-Jan-20 16:31N 29°47' W 092°11'0 0.0
2018-Jan-20 16:00N 29°47' W 092°11'0 0.0
2018-Jan-20 15:30N 29°47' W 092°11'0 0.0
2018-Jan-20 15:00N 29°47' W 092°11'0 0.0
2018-Jan-20 14:30N 29°47' W 092°11'0 0.0
2018-Jan-20 13:58N 29°47' W 092°11'0 0.0
2018-Jan-20 13:30N 29°47' W 092°11'0 0.0
2018-Jan-20 13:00N 29°47' W 092°11'0 0.0
2018-Jan-20 12:30N 29°47' W 092°11'0 0.0
2018-Jan-20 12:00N 29°47' W 092°11'0 0.0
2018-Jan-20 11:30N 29°47' W 092°11'0 0.0
2018-Jan-20 11:00N 29°47' W 092°11'0 0.0
2018-Jan-20 10:30N 29°47' W 092°11'0 0.0
2018-Jan-20 10:00N 29°47' W 092°11'0 0.0
2018-Jan-20 09:31N 29°47' W 092°11'0 0.0
2018-Jan-20 09:01N 29°47' W 092°11'0 0.0
2018-Jan-20 08:30N 29°47' W 092°11'0 0.0
2018-Jan-20 08:00N 29°47' W 092°11'0 0.0
2018-Jan-20 07:30N 29°47' W 092°11'0 0.0
2018-Jan-20 07:00N 29°47' W 092°11'0 0.0
2018-Jan-20 06:31N 29°47' W 092°11'0 0.0
2018-Jan-20 06:01N 29°47' W 092°11'0 0.0
2018-Jan-20 05:30N 29°47' W 092°11'0 0.0
2018-Jan-20 05:00N 29°47' W 092°11'0 0.0
2018-Jan-20 04:30N 29°47' W 092°11'0 0.0
2018-Jan-20 04:00N 29°47' W 092°11'0 0.0
2018-Jan-20 03:31N 29°47' W 092°11'0 0.0
2018-Jan-20 03:01N 29°47' W 092°11'0 0.0
2018-Jan-20 02:30N 29°47' W 092°11'0 0.0
2018-Jan-20 02:00N 29°47' W 092°11'0 0.0
2018-Jan-20 01:30N 29°47' W 092°11'0 0.0
2018-Jan-20 00:59N 29°47' W 092°11'0 0.0
2018-Jan-20 00:30N 29°47' W 092°11'0 0.0
2018-Jan-20 00:00N 29°47' W 092°11'0 0.0
2018-Jan-19 23:31N 29°47' W 092°11'0 0.0
2018-Jan-19 23:00N 29°47' W 092°11'0 0.0
2018-Jan-19 22:30N 29°47' W 092°11'0 0.0
2018-Jan-19 22:01N 29°47' W 092°11'0 0.0
2018-Jan-19 21:30N 29°47' W 092°11'0 0.0
2018-Jan-19 21:00N 29°47' W 092°11'0 0.0
2018-Jan-19 20:30N 29°47' W 092°11'0 0.0
2018-Jan-19 20:01N 29°47' W 092°11'0 0.0
2018-Jan-19 19:30N 29°47' W 092°11'0 0.0
2018-Jan-19 19:00N 29°47' W 092°11'0 0.0
2018-Jan-19 18:30N 29°47' W 092°11'0 0.0
2018-Jan-19 18:00N 29°47' W 092°11'0 0.0
2018-Jan-19 17:31N 29°47' W 092°11'0 0.0
2018-Jan-19 17:00N 29°47' W 092°11'0 0.0
2018-Jan-19 16:30N 29°47' W 092°11'0 0.0
2018-Jan-19 16:00N 29°47' W 092°11'0 0.0
2018-Jan-19 15:30N 29°47' W 092°11'0 0.0
2018-Jan-19 15:01N 29°47' W 092°11'0 0.0
2018-Jan-19 14:30N 29°47' W 092°11'0 0.0
2018-Jan-19 14:00N 29°47' W 092°11'0 0.0
2018-Jan-19 13:30N 29°47' W 092°11'0 0.0
2018-Jan-19 13:00N 29°47' W 092°11'0 0.0
2018-Jan-19 12:30N 29°47' W 092°11'0 0.0
2018-Jan-19 12:00N 29°47' W 092°11'0 0.0
2018-Jan-19 11:30N 29°47' W 092°11'0 0.0
2018-Jan-19 11:00N 29°47' W 092°11'0 0.0
2018-Jan-19 10:30N 29°47' W 092°11'0 0.0
2018-Jan-19 10:00N 29°47' W 092°11'0 0.0
2018-Jan-19 09:30N 29°47' W 092°11'0 0.0
2018-Jan-19 09:00N 29°47' W 092°11'0 0.0
2018-Jan-19 08:31N 29°47' W 092°11'0 0.0
2018-Jan-19 08:00N 29°47' W 092°11'0 0.0
2018-Jan-19 07:30N 29°47' W 092°11'0 0.0
2018-Jan-19 07:00N 29°47' W 092°11'0 0.0
2018-Jan-19 06:30N 29°47' W 092°11'0 0.0
2018-Jan-19 06:00N 29°47' W 092°11'0 0.0
2018-Jan-19 05:30N 29°47' W 092°11'0 0.0
2018-Jan-19 05:00N 29°47' W 092°11'0 0.0
2018-Jan-19 04:31N 29°47' W 092°11'0 0.0
2018-Jan-19 04:01N 29°47' W 092°11'0 0.0
2018-Jan-19 03:30N 29°47' W 092°11'0 0.0
2018-Jan-19 03:00N 29°47' W 092°11'0 0.0
2018-Jan-19 02:30N 29°47' W 092°11'0 0.0
2018-Jan-19 02:00N 29°47' W 092°11'0 0.0
2018-Jan-19 01:30N 29°47' W 092°11'0 0.0
2018-Jan-19 01:00N 29°47' W 092°11'0 0.0
2018-Jan-19 00:30N 29°47' W 092°11'0 0.0
2018-Jan-19 00:00N 29°47' W 092°11'0 0.0
2018-Jan-18 23:30N 29°47' W 092°11'0 0.0
2018-Jan-18 23:00N 29°47' W 092°11'0 0.0
2018-Jan-18 22:30N 29°47' W 092°11'0 0.0
2018-Jan-18 22:00N 29°47' W 092°11'0 0.0
2018-Jan-18 21:30N 29°47' W 092°11'0 0.0
2018-Jan-18 21:00N 29°47' W 092°11'0 0.0
2018-Jan-18 20:30N 29°47' W 092°11'0 0.0
2018-Jan-18 20:01N 29°47' W 092°11'0 0.0
2018-Jan-18 19:30N 29°47' W 092°11'0 0.0
2018-Jan-18 19:00N 29°47' W 092°11'0 0.0
2018-Jan-18 18:30N 29°47' W 092°11'0 0.0
2018-Jan-18 18:01N 29°47' W 092°11'0 0.0
2018-Jan-18 17:30N 29°47' W 092°11'0 0.0
2018-Jan-18 17:00N 29°47' W 092°11'0 0.0
2018-Jan-18 16:30N 29°47' W 092°11'0 0.0
2018-Jan-18 16:00N 29°47' W 092°11'0 0.0
2018-Jan-18 15:31N 29°47' W 092°11'0 0.0
2018-Jan-18 15:00N 29°47' W 092°11'0 0.0
2018-Jan-18 14:31N 29°47' W 092°11'0 0.0
2018-Jan-18 14:01N 29°47' W 092°11'0 0.0
2018-Jan-18 13:31N 29°47' W 092°11'0 0.0
2018-Jan-18 13:00N 29°47' W 092°11'0 0.0
2018-Jan-18 12:30N 29°47' W 092°11'0 0.0
2018-Jan-18 12:00N 29°47' W 092°11'0 0.0
2018-Jan-18 11:30N 29°47' W 092°11'0 0.0
2018-Jan-18 10:58N 29°47' W 092°11'0 0.0
2018-Jan-18 10:30N 29°47' W 092°11'0 0.0
2018-Jan-18 10:00N 29°47' W 092°11'0 0.0
2018-Jan-18 09:30N 29°47' W 092°11'0 0.0
2018-Jan-18 09:01N 29°47' W 092°11'0 0.0
2018-Jan-18 08:31N 29°47' W 092°11'0 0.0
2018-Jan-18 08:01N 29°47' W 092°11'0 0.0
2018-Jan-18 07:31N 29°47' W 092°11'0 0.0
2018-Jan-18 07:01N 29°47' W 092°11'0 0.0
2018-Jan-18 06:30N 29°47' W 092°11'0 0.0
2018-Jan-18 06:00N 29°47' W 092°11'0 0.0
2018-Jan-18 05:31N 29°47' W 092°11'0 0.0
2018-Jan-18 05:00N 29°47' W 092°11'0 0.0
2018-Jan-18 04:30N 29°47' W 092°11'0 0.0
2018-Jan-18 04:00N 29°47' W 092°11'0 0.0
2018-Jan-18 03:31N 29°47' W 092°11'0 0.0
2018-Jan-18 03:00N 29°47' W 092°11'0 0.0
2018-Jan-18 02:30N 29°47' W 092°11'0 0.0
2018-Jan-18 02:01N 29°47' W 092°11'0 0.0
2018-Jan-18 01:30N 29°47' W 092°11'0 0.0
2018-Jan-18 01:00N 29°47' W 092°11'0 0.0
2018-Jan-18 00:00N 29°47' W 092°11'0 0.1
2018-Jan-17 23:57N 29°47' W 092°11'  

Dump ship's entire track history